aviador You're here:

KMKO Decoded Metar

MUSKOGEE in OK, USA
Report Time2017-03-23 23:53:00
UTC Time2017-03-24 00:07:14
Flight Rules vfr VFR
Wind170° at 15 Gusting to 27 kt
W.Decomp.*RWY 18: 14.4 kt HW 4.1 kt LCW
RWY 13: 12.4 kt HW 8.4 kt RCW
RWY 22: 8.4 kt HW 12.4 kt LCW
W.Rank170° ranks 3
Current wind is above 170° avg. (7.5)
Visibility9999 m
Phenomena:N/A
Clouds:N/A
Expected CloudBase > 7,200 ft AGL from Temp-Dew spread
CeilingNone
Temp27°C (ISA +13)
Dew Point09°C (32% RH)
Heat Index26.5°C
AAT21.4°C
QNH1011 hPa
Density Alt2,352 ft
Elevation607 ft
Report Wrong Elevation
Raw Report
KMKO 232353Z AUTO 17015G27KT 10SM CLR 27/09 A2986 RMK AO2 PK WND
16027/2324 SLP107 T02720089 10278 20200 56023=

Extra information for KMKO:More info

Metar Taf Metar & Taf Last 4 Metars F.Rules Stats Wind Profile Meteogram Temp Stats Airport Information Weather charts Add Link Nearby VenuesMetar ALERT Operation Metar Decoded Social comments

AIRNAV info for KMKO